Terminal Aerodrome Forecast
Issued by NWS Austin/San Antonio, TX

Home | Current Version | Previous Version | Text Only | Print | Product List | Glossary On
Versions: 1 2 3 4 5 6 7 8 9 10 11 12 13 14 15 16 17 18 19 20 21 22 23 24 25 26 27
000
FTUS44 KEWX 031135
TAFSAT
TAF
KSAT 031135Z 0312/0418 17008KT P6SM BKN010 OVC022
      TEMPO 0312/0314 BKN007 OVC022
     FM031600 16014KT P6SM SCT035 BKN250
     FM040500 15008KT P6SM BKN012
     FM041600 16012KT P6SM SCT035 SCT250=

USA.gov is the U.S. government's official web portal to all federal, state and local government web resources and services.